Saturday, August 23, 2014
07:36 UTC
  |  Log In   |  Register Free
Airport Search:

Chanute Martin Johnson Airport
(KCNU)

Chanute Martin Johnson Airport Diagram
No Airport Diagram Available

FAA data valid effective July 24, 2014 until September 18, 2014 (unless otherwise noted).

 
 
 
 
 
 
 
 
 
 
 
 
 
 

Current Aviation Weather for Chanute Martin Johnson Airport (KCNU)

The most recent METAR observation for KCNU was updated at: 1752 UTC
METAR Summary (Translated METAR)
KCNU
281752Z AUTO 33011G17KT 10SM CLR 27/15 A3024 RMK AO2 SLP229 T02670150 10267 20167 58001
KPPF
(20.3 nm SW from KCNU)
281852Z AUTO 32011G14KT 10SM CLR 29/14 A3021 RMK AO2 SLP220 T02940144
TAF Summary (Translated TAF)
KCNU
230522Z 2306/2406 17008KT P6SM SKC FM231500 19015G22KT P6SM SCT070 FM240000 17010KT P6SM SCT090
  Airport Weather Conditions for KCNU

 Current Weather at CNU
80° F
Fair
South winds at 10.4 mph
CNU NOAA Radar

Pressure: 29.93 in
Humidity: 71%
Wind: South at 10.4 MPH (9 KT)
Dew Point: 70.0°F
Visibility: 10.00 mi


Airport Weather Forecast for KCNU

Translated METAR and TAF for KCNU
Translated METAR for KCNU (0730 UTC 23 August 2014)
found at http://aviationweather.gov/adds/metars/
 
METAR text: KCNU 230652Z AUTO 18009KT 10SM CLR 27/21 A2993 RMK AO2 SLP120 T02670211
Conditions at: KCNU (CHANUTE , KS, US) observed 0652 UTC 23 August 2014
Temperature: 26.7°C (80°F)
Dewpoint: 21.1°C (70°F) [RH = 71%]
Pressure (altimeter): 29.93 inches Hg (1013.6 mb)
[Sea-level pressure: 1012.0 mb]
Winds: from the S (180 degrees) at 10 MPH (9 knots; 4.7 m/s)
Visibility: 10 or more miles (16+ km)
Ceiling: at least 12,000 feet AGL
Clouds: sky clear below 12,000 feet AGL
Weather: automated observation with no human augmentation;
there may or may not be significant weather present at this time
Translated TAF for KCNU
Forecast for: KCNU (CHANUTE , KS, US)
TAF Text: KCNU 230522Z 2306/2406 17008KT P6SM SKC
Forecast period: 0600 to 1500 UTC 23 August 2014
Forecast type: FROM: standard forecast or significant change
Winds: from the S (170 degrees) at 9 MPH (8 knots; 4.2 m/s)
Visibility: 6 or more miles (10+ km)
Clouds: clear skies
Weather: no significant weather forecast for this period
TAF Text: FM231500 19015G22KT P6SM SCT070
Forecast period: 1500 UTC 23 August 2014 to 0000 UTC 24 August 2014
Forecast type: FROM: standard forecast or significant change
Winds: from the S (190 degrees) at 17 MPH (15 knots; 7.8 m/s)
gusting to 25 MPH (22 knots; 11.4 m/s)
Visibility: 6 or more miles (10+ km)
Clouds: scattered clouds at 7000 feet AGL
Weather: no significant weather forecast for this period
TAF Text: FM240000 17010KT P6SM SCT090
Forecast period: 0000 to 0600 UTC 24 August 2014
Forecast type: FROM: standard forecast or significant change
Winds: from the S (170 degrees) at 12 MPH (10 knots; 5.2 m/s)
Visibility: 6 or more miles (10+ km)
Clouds: scattered clouds at 9000 feet AGL
Weather: no significant weather forecast for this period

Find All Airport Services Find A Hotel Find A Rental Car Find A Golf Course Find A Restaurant $100 Hamburger



FBO's on the Field
FBO Company Facility Photos Services Transportation Aviation Fuel Prices: Prices include tax
Catering Weather Repair Courtesy Rental Type 100LL JetA JetA+ MOGAS 8087
 
City of Chanute

This FBO has not yet been rated
FS:Phillips66
Last Updated: Aug-22
Login to update fuel prices
SS:
Contact City of ChanuteMore FBO Information
 
Add another FBO Facility Photos Catering Weather Repair Courtesy Rental Type 100LL JetA JetA+ MOGAS 8087
Services Transportation Aviation Fuel Prices: Prices include tax


GlobalAir.com Airport Resource Center model-print
model-print
model-print
model-print